sensor_id;sensor_type;location;lat;lon;timestamp;pressure;altitude;pressure_sealevel;temperature;humidity
80759;BME280;70150;45.582;10.178;2023-06-26T00:00:12;99861.34;;;23.90;55.93
80759;BME280;70150;45.582;10.178;2023-06-26T00:02:38;99869.13;;;23.91;56.04
80759;BME280;70150;45.582;10.178;2023-06-26T00:05:06;99877.72;;;23.68;56.55
80759;BME280;70150;45.582;10.178;2023-06-26T00:07:32;99871.69;;;23.73;56.70
80759;BME280;70150;45.582;10.178;2023-06-26T00:10:01;99875.44;;;23.54;56.92
80759;BME280;70150;45.582;10.178;2023-06-26T00:12:28;99878.06;;;23.58;56.96
80759;BME280;70150;45.582;10.178;2023-06-26T00:14:53;99889.69;;;23.49;57.14
80759;BME280;70150;45.582;10.178;2023-06-26T00:17:19;99873.66;;;23.60;56.88
80759;BME280;70150;45.582;10.178;2023-06-26T00:22:10;99881.78;;;23.64;56.53
80759;BME280;70150;45.582;10.178;2023-06-26T00:24:36;99876.50;;;23.69;56.42
80759;BME280;70150;45.582;10.178;2023-06-26T00:27:01;99868.63;;;23.59;56.50
80759;BME280;70150;45.582;10.178;2023-06-26T00:29:27;99872.81;;;23.51;56.67
80759;BME280;70150;45.582;10.178;2023-06-26T00:31:52;99879.47;;;23.37;57.19
80759;BME280;70150;45.582;10.178;2023-06-26T00:34:18;99876.97;;;23.43;56.98
80759;BME280;70150;45.582;10.178;2023-06-26T00:36:44;99873.03;;;23.56;57.13
80759;BME280;70150;45.582;10.178;2023-06-26T00:39:10;99873.91;;;23.53;56.96
80759;BME280;70150;45.582;10.178;2023-06-26T00:41:37;99869.19;;;23.54;56.82
80759;BME280;70150;45.582;10.178;2023-06-26T00:44:04;99882.75;;;23.45;57.32
80759;BME280;70150;45.582;10.178;2023-06-26T00:46:30;99885.19;;;23.43;57.12
80759;BME280;70150;45.582;10.178;2023-06-26T00:48:58;99883.66;;;23.29;57.81
80759;BME280;70150;45.582;10.178;2023-06-26T00:51:25;99881.78;;;23.26;57.96
80759;BME280;70150;45.582;10.178;2023-06-26T00:53:50;99884.97;;;23.25;57.82
80759;BME280;70150;45.582;10.178;2023-06-26T00:56:18;99881.78;;;23.26;57.79
80759;BME280;70150;45.582;10.178;2023-06-26T00:58:46;99886.56;;;23.22;57.63
80759;BME280;70150;45.582;10.178;2023-06-26T01:01:13;99881.78;;;23.26;57.77
80759;BME280;70150;45.582;10.178;2023-06-26T01:03:41;99880.34;;;23.22;57.67
80759;BME280;70150;45.582;10.178;2023-06-26T01:06:09;99885.41;;;23.36;57.20
80759;BME280;70150;45.582;10.178;2023-06-26T01:08:38;99890.22;;;23.32;57.71
80759;BME280;70150;45.582;10.178;2023-06-26T01:11:04;99883.97;;;23.31;57.51
80759;BME280;70150;45.582;10.178;2023-06-26T01:13:30;99885.63;;;23.29;57.39
80759;BME280;70150;45.582;10.178;2023-06-26T01:15:58;99882.13;;;23.41;57.10
80759;BME280;70150;45.582;10.178;2023-06-26T01:18:25;99879.91;;;23.36;57.28
80759;BME280;70150;45.582;10.178;2023-06-26T01:20:51;99883.97;;;23.31;57.46
80759;BME280;70150;45.582;10.178;2023-06-26T01:23:20;99882.00;;;23.32;57.11
80759;BME280;70150;45.582;10.178;2023-06-26T01:28:16;99887.78;;;23.21;57.57
80759;BME280;70150;45.582;10.178;2023-06-26T01:30:44;99880.75;;;23.07;57.87
80759;BME280;70150;45.582;10.178;2023-06-26T01:33:11;99879.78;;;23.14;57.87
80759;BME280;70150;45.582;10.178;2023-06-26T01:35:37;99872.66;;;23.17;57.74
80759;BME280;70150;45.582;10.178;2023-06-26T01:40:35;99875.19;;;23.11;57.88
80759;BME280;70150;45.582;10.178;2023-06-26T01:43:01;99874.53;;;23.20;57.75
80759;BME280;70150;45.582;10.178;2023-06-26T01:45:27;99866.97;;;23.24;57.44
80759;BME280;70150;45.582;10.178;2023-06-26T01:47:56;99875.06;;;23.14;57.70
80759;BME280;70150;45.582;10.178;2023-06-26T01:50:26;99873.31;;;23.08;57.93
80759;BME280;70150;45.582;10.178;2023-06-26T01:53:00;99877.38;;;23.03;58.03
80759;BME280;70150;45.582;10.178;2023-06-26T01:55:32;99867.50;;;23.06;57.92
80759;BME280;70150;45.582;10.178;2023-06-26T01:58:01;99869.91;;;23.04;58.02
80759;BME280;70150;45.582;10.178;2023-06-26T02:00:28;99874.81;;;22.96;58.18
80759;BME280;70150;45.582;10.178;2023-06-26T02:02:54;99872.66;;;22.91;58.27
80759;BME280;70150;45.582;10.178;2023-06-26T02:05:20;99866.41;;;22.91;58.24
80759;BME280;70150;45.582;10.178;2023-06-26T02:07:45;99871.56;;;23.01;57.95
80759;BME280;70150;45.582;10.178;2023-06-26T02:10:11;99868.59;;;22.96;58.54
80759;BME280;70150;45.582;10.178;2023-06-26T02:12:37;99871.34;;;22.96;58.70
80759;BME280;70150;45.582;10.178;2023-06-26T02:15:04;99869.09;;;22.78;58.62
80759;BME280;70150;45.582;10.178;2023-06-26T02:17:30;99876.44;;;22.81;58.70
80759;BME280;70150;45.582;10.178;2023-06-26T02:19:55;99877.88;;;22.86;58.56
80759;BME280;70150;45.582;10.178;2023-06-26T02:22:21;99890.38;;;22.87;58.71
80759;BME280;70150;45.582;10.178;2023-06-26T02:24:47;99888.59;;;22.80;58.80
80759;BME280;70150;45.582;10.178;2023-06-26T02:27:12;99877.75;;;22.77;58.94
80759;BME280;70150;45.582;10.178;2023-06-26T02:29:38;99875.56;;;22.84;58.60
80759;BME280;70150;45.582;10.178;2023-06-26T02:32:05;99877.78;;;22.89;58.46
80759;BME280;70150;45.582;10.178;2023-06-26T02:34:34;99876.13;;;22.92;58.39
80759;BME280;70150;45.582;10.178;2023-06-26T02:37:00;99874.78;;;22.71;58.83
80759;BME280;70150;45.582;10.178;2023-06-26T02:39:26;99879.84;;;22.85;58.57
80759;BME280;70150;45.582;10.178;2023-06-26T02:41:52;99878.53;;;22.77;58.69
80759;BME280;70150;45.582;10.178;2023-06-26T02:44:17;99884.66;;;22.81;58.84
80759;BME280;70150;45.582;10.178;2023-06-26T02:46:43;99882.78;;;22.78;58.77
80759;BME280;70150;45.582;10.178;2023-06-26T02:49:08;99881.03;;;22.84;58.65
80759;BME280;70150;45.582;10.178;2023-06-26T02:51:34;99882.69;;;22.82;58.40
80759;BME280;70150;45.582;10.178;2023-06-26T02:54:00;99882.16;;;22.87;58.16
80759;BME280;70150;45.582;10.178;2023-06-26T02:56:26;99886.31;;;22.91;58.13
80759;BME280;70150;45.582;10.178;2023-06-26T02:58:56;99888.75;;;23.02;57.97
80759;BME280;70150;45.582;10.178;2023-06-26T03:01:21;99882.72;;;22.94;58.13
80759;BME280;70150;45.582;10.178;2023-06-26T03:03:47;99886.63;;;22.93;58.25
80759;BME280;70150;45.582;10.178;2023-06-26T03:06:13;99889.16;;;22.88;58.51
80759;BME280;70150;45.582;10.178;2023-06-26T03:08:39;99889.59;;;22.86;58.47
80759;BME280;70150;45.582;10.178;2023-06-26T03:11:06;99890.97;;;22.78;58.62
80759;BME280;70150;45.582;10.178;2023-06-26T03:13:32;99898.53;;;22.74;58.89
80759;BME280;70150;45.582;10.178;2023-06-26T03:15:57;99888.69;;;22.77;58.77
80759;BME280;70150;45.582;10.178;2023-06-26T03:18:23;99900.16;;;22.72;59.24
80759;BME280;70150;45.582;10.178;2023-06-26T03:20:51;99887.91;;;22.64;59.19
80759;BME280;70150;45.582;10.178;2023-06-26T03:23:19;99890.00;;;22.72;59.17
80759;BME280;70150;45.582;10.178;2023-06-26T03:25:45;99896.97;;;22.61;59.47
80759;BME280;70150;45.582;10.178;2023-06-26T03:28:11;99900.22;;;22.56;59.42
80759;BME280;70150;45.582;10.178;2023-06-26T03:30:37;99898.25;;;22.56;59.55
80759;BME280;70150;45.582;10.178;2023-06-26T03:33:02;99891.78;;;22.50;59.80
80759;BME280;70150;45.582;10.178;2023-06-26T03:35:30;99894.31;;;22.57;59.77
80759;BME280;70150;45.582;10.178;2023-06-26T03:37:57;99890.81;;;22.57;59.49
80759;BME280;70150;45.582;10.178;2023-06-26T03:40:23;99904.03;;;22.58;59.31
80759;BME280;70150;45.582;10.178;2023-06-26T03:42:48;99897.63;;;22.65;59.18
80759;BME280;70150;45.582;10.178;2023-06-26T03:45:14;99890.63;;;22.64;59.06
80759;BME280;70150;45.582;10.178;2023-06-26T03:47:39;99901.38;;;22.71;59.18
80759;BME280;70150;45.582;10.178;2023-06-26T03:50:05;99907.09;;;22.76;58.89
80759;BME280;70150;45.582;10.178;2023-06-26T03:52:33;99908.22;;;22.63;59.40
80759;BME280;70150;45.582;10.178;2023-06-26T03:55:00;99906.91;;;22.67;59.14
80759;BME280;70150;45.582;10.178;2023-06-26T03:57:25;99911.81;;;22.60;59.29
80759;BME280;70150;45.582;10.178;2023-06-26T03:59:53;99910.06;;;22.53;59.71
80759;BME280;70150;45.582;10.178;2023-06-26T04:02:19;99910.22;;;22.62;59.59
80759;BME280;70150;45.582;10.178;2023-06-26T04:04:44;99907.91;;;22.61;59.55
80759;BME280;70150;45.582;10.178;2023-06-26T04:07:10;99906.78;;;22.58;59.65
80759;BME280;70150;45.582;10.178;2023-06-26T04:09:35;99907.78;;;22.64;59.69
80759;BME280;70150;45.582;10.178;2023-06-26T04:12:02;99916.13;;;22.73;59.27
80759;BME280;70150;45.582;10.178;2023-06-26T04:14:28;99905.41;;;22.66;59.22
80759;BME280;70150;45.582;10.178;2023-06-26T04:16:53;99916.53;;;22.59;59.54
80759;BME280;70150;45.582;10.178;2023-06-26T04:19:22;99920.59;;;22.67;59.46
80759;BME280;70150;45.582;10.178;2023-06-26T04:21:49;99919.41;;;22.68;59.51
80759;BME280;70150;45.582;10.178;2023-06-26T04:24:15;99922.94;;;22.81;58.94
80759;BME280;70150;45.582;10.178;2023-06-26T04:26:41;99926.13;;;22.80;58.94
80759;BME280;70150;45.582;10.178;2023-06-26T04:29:06;99928.09;;;22.79;59.12
80759;BME280;70150;45.582;10.178;2023-06-26T04:31:32;99937.19;;;22.76;58.84
80759;BME280;70150;45.582;10.178;2023-06-26T04:33:57;99933.91;;;22.81;59.03
80759;BME280;70150;45.582;10.178;2023-06-26T04:36:24;99935.53;;;22.79;59.21
80759;BME280;70150;45.582;10.178;2023-06-26T04:38:54;99936.88;;;22.87;58.96
80759;BME280;70150;45.582;10.178;2023-06-26T04:41:21;99947.53;;;22.97;58.55
80759;BME280;70150;45.582;10.178;2023-06-26T04:43:46;99939.88;;;23.05;58.18
80759;BME280;70150;45.582;10.178;2023-06-26T04:46:12;99935.06;;;23.09;58.13
80759;BME280;70150;45.582;10.178;2023-06-26T04:48:37;99941.03;;;23.33;57.56
80759;BME280;70150;45.582;10.178;2023-06-26T04:51:03;99944.56;;;23.46;57.36
80759;BME280;70150;45.582;10.178;2023-06-26T04:53:28;99945.03;;;23.57;56.81
80759;BME280;70150;45.582;10.178;2023-06-26T04:55:54;99937.22;;;23.68;56.41
80759;BME280;70150;45.582;10.178;2023-06-26T04:58:20;99940.84;;;23.52;56.14
80759;BME280;70150;45.582;10.178;2023-06-26T05:00:45;99925.69;;;25.00;52.44
80759;BME280;70150;45.582;10.178;2023-06-26T05:03:12;99922.75;;;25.86;50.19
80759;BME280;70150;45.582;10.178;2023-06-26T05:05:38;99920.41;;;26.42;48.71
80759;BME280;70150;45.582;10.178;2023-06-26T05:10:38;99914.50;;;27.31;46.23
80759;BME280;70150;45.582;10.178;2023-06-26T05:13:04;99913.19;;;27.91;44.84
80759;BME280;70150;45.582;10.178;2023-06-26T05:15:29;99920.16;;;28.01;44.48
80759;BME280;70150;45.582;10.178;2023-06-26T05:17:55;99914.91;;;28.51;43.43
80759;BME280;70150;45.582;10.178;2023-06-26T05:20:20;99924.25;;;28.53;43.00
80759;BME280;70150;45.582;10.178;2023-06-26T05:22:46;99915.25;;;28.67;42.76
80759;BME280;70150;45.582;10.178;2023-06-26T05:25:15;99921.44;;;28.91;41.99
80759;BME280;70150;45.582;10.178;2023-06-26T05:27:41;99915.44;;;28.93;42.19
80759;BME280;70150;45.582;10.178;2023-06-26T05:30:07;99917.97;;;29.54;41.51
80759;BME280;70150;45.582;10.178;2023-06-26T05:32:34;99915.53;;;29.91;40.40
80759;BME280;70150;45.582;10.178;2023-06-26T05:35:01;99916.44;;;30.43;39.24
80759;BME280;70150;45.582;10.178;2023-06-26T05:37:28;99913.38;;;30.81;38.72
80759;BME280;70150;45.582;10.178;2023-06-26T05:39:54;99913.19;;;31.21;37.88
80759;BME280;70150;45.582;10.178;2023-06-26T05:42:20;99903.22;;;31.29;37.42
80759;BME280;70150;45.582;10.178;2023-06-26T05:44:45;99909.03;;;32.15;36.06
80759;BME280;70150;45.582;10.178;2023-06-26T05:47:11;99913.53;;;32.71;35.23
80759;BME280;70150;45.582;10.178;2023-06-26T05:49:36;99913.34;;;33.02;34.95
80759;BME280;70150;45.582;10.178;2023-06-26T05:52:02;99915.13;;;33.44;34.05
80759;BME280;70150;45.582;10.178;2023-06-26T05:54:31;99919.84;;;33.99;33.15
80759;BME280;70150;45.582;10.178;2023-06-26T05:56:57;99914.56;;;33.90;32.55
80759;BME280;70150;45.582;10.178;2023-06-26T05:59:26;99908.13;;;34.68;31.97
80759;BME280;70150;45.582;10.178;2023-06-26T06:01:52;99913.09;;;34.81;31.34
80759;BME280;70150;45.582;10.178;2023-06-26T06:04:17;99905.50;;;35.46;30.33
80759;BME280;70150;45.582;10.178;2023-06-26T06:06:43;99903.72;;;35.97;29.27
80759;BME280;70150;45.582;10.178;2023-06-26T06:09:09;99911.16;;;36.13;29.33
80759;BME280;70150;45.582;10.178;2023-06-26T06:11:34;99916.75;;;36.87;28.62
80759;BME280;70150;45.582;10.178;2023-06-26T06:14:00;99906.81;;;37.36;27.81
80759;BME280;70150;45.582;10.178;2023-06-26T06:16:26;99917.13;;;37.86;26.98
80759;BME280;70150;45.582;10.178;2023-06-26T06:18:54;99921.88;;;37.91;26.79
80759;BME280;70150;45.582;10.178;2023-06-26T06:21:20;99919.44;;;38.34;26.24
80759;BME280;70150;45.582;10.178;2023-06-26T06:23:45;99919.97;;;38.79;25.53
80759;BME280;70150;45.582;10.178;2023-06-26T06:26:11;99917.16;;;39.33;25.31
80759;BME280;70150;45.582;10.178;2023-06-26T06:28:38;99915.81;;;39.55;24.93
80759;BME280;70150;45.582;10.178;2023-06-26T06:31:03;99919.16;;;40.10;24.11
80759;BME280;70150;45.582;10.178;2023-06-26T06:33:29;99921.53;;;40.34;23.93
80759;BME280;70150;45.582;10.178;2023-06-26T06:35:54;99920.63;;;40.39;24.13
80759;BME280;70150;45.582;10.178;2023-06-26T06:38:20;99917.22;;;39.90;24.33
80759;BME280;70150;45.582;10.178;2023-06-26T06:40:45;99911.28;;;38.70;25.82
80759;BME280;70150;45.582;10.178;2023-06-26T06:43:11;99915.41;;;36.57;28.79
80759;BME280;70150;45.582;10.178;2023-06-26T06:45:36;99909.19;;;35.01;31.61
80759;BME280;70150;45.582;10.178;2023-06-26T06:48:03;99917.56;;;34.03;33.42
80759;BME280;70150;45.582;10.178;2023-06-26T06:50:29;99923.97;;;33.15;35.48
80759;BME280;70150;45.582;10.178;2023-06-26T06:52:55;99915.97;;;32.36;36.22
80759;BME280;70150;45.582;10.178;2023-06-26T06:55:20;99913.66;;;32.29;36.79
80759;BME280;70150;45.582;10.178;2023-06-26T06:57:46;99923.16;;;32.12;37.17
80759;BME280;70150;45.582;10.178;2023-06-26T07:00:12;99918.81;;;31.58;38.33
80759;BME280;70150;45.582;10.178;2023-06-26T07:02:41;99919.72;;;31.18;40.25
80759;BME280;70150;45.582;10.178;2023-06-26T07:05:07;99922.81;;;31.25;39.05
80759;BME280;70150;45.582;10.178;2023-06-26T07:07:34;99917.22;;;31.20;39.67
80759;BME280;70150;45.582;10.178;2023-06-26T07:10:02;99905.91;;;31.23;38.31
80759;BME280;70150;45.582;10.178;2023-06-26T07:12:28;99910.28;;;31.30;37.53
80759;BME280;70150;45.582;10.178;2023-06-26T07:14:55;99906.47;;;31.27;37.55
80759;BME280;70150;45.582;10.178;2023-06-26T07:17:21;99907.59;;;31.41;37.14
80759;BME280;70150;45.582;10.178;2023-06-26T07:19:47;99908.50;;;31.64;36.07
80759;BME280;70150;45.582;10.178;2023-06-26T07:22:13;99915.03;;;31.61;34.84
80759;BME280;70150;45.582;10.178;2023-06-26T07:24:38;99912.47;;;31.57;35.80
80759;BME280;70150;45.582;10.178;2023-06-26T07:27:04;99915.81;;;31.61;35.79
80759;BME280;70150;45.582;10.178;2023-06-26T07:29:30;99915.81;;;31.30;35.68
80759;BME280;70150;45.582;10.178;2023-06-26T07:31:55;99921.09;;;31.02;35.78
80759;BME280;70150;45.582;10.178;2023-06-26T07:34:21;99926.25;;;31.46;35.73
80759;BME280;70150;45.582;10.178;2023-06-26T07:36:46;99923.94;;;31.70;35.42
80759;BME280;70150;45.582;10.178;2023-06-26T07:39:12;99919.19;;;31.82;34.64
80759;BME280;70150;45.582;10.178;2023-06-26T07:41:37;99922.09;;;31.98;33.55
80759;BME280;70150;45.582;10.178;2023-06-26T07:44:03;99913.06;;;31.72;34.42
80759;BME280;70150;45.582;10.178;2023-06-26T07:46:29;99912.78;;;31.65;33.27
80759;BME280;70150;45.582;10.178;2023-06-26T07:48:54;99915.59;;;31.33;34.79
80759;BME280;70150;45.582;10.178;2023-06-26T07:51:20;99904.34;;;31.85;34.11
80759;BME280;70150;45.582;10.178;2023-06-26T07:53:46;99913.06;;;31.72;34.44
80759;BME280;70150;45.582;10.178;2023-06-26T07:56:11;99908.53;;;31.69;34.01
80759;BME280;70150;45.582;10.178;2023-06-26T07:58:37;99914.84;;;31.70;34.71
80759;BME280;70150;45.582;10.178;2023-06-26T08:01:02;99915.53;;;32.01;34.58
80759;BME280;70150;45.582;10.178;2023-06-26T08:03:28;99908.41;;;31.89;34.26
80759;BME280;70150;45.582;10.178;2023-06-26T08:05:53;99905.28;;;32.24;34.48
80759;BME280;70150;45.582;10.178;2023-06-26T08:08:19;99909.56;;;32.25;34.10
80759;BME280;70150;45.582;10.178;2023-06-26T08:10:45;99917.25;;;31.93;34.30
80759;BME280;70150;45.582;10.178;2023-06-26T08:13:10;99914.59;;;32.15;33.32
80759;BME280;70150;45.582;10.178;2023-06-26T08:15:36;99920.88;;;32.05;33.12
80759;BME280;70150;45.582;10.178;2023-06-26T08:18:01;99911.09;;;31.78;33.36
80759;BME280;70150;45.582;10.178;2023-06-26T08:20:27;99906.25;;;31.68;33.34
80759;BME280;70150;45.582;10.178;2023-06-26T08:22:53;99901.38;;;31.57;34.07
80759;BME280;70150;45.582;10.178;2023-06-26T08:25:20;99899.94;;;31.67;33.30
80759;BME280;70150;45.582;10.178;2023-06-26T08:27:45;99899.09;;;31.92;32.57
80759;BME280;70150;45.582;10.178;2023-06-26T08:30:11;99886.56;;;32.13;32.65
80759;BME280;70150;45.582;10.178;2023-06-26T08:32:37;99897.44;;;32.22;33.58
80759;BME280;70150;45.582;10.178;2023-06-26T08:35:06;99890.34;;;32.10;33.05
80759;BME280;70150;45.582;10.178;2023-06-26T08:37:32;99888.28;;;32.00;34.15
80759;BME280;70150;45.582;10.178;2023-06-26T08:40:01;99902.09;;;32.42;33.90
80759;BME280;70150;45.582;10.178;2023-06-26T08:42:27;99894.31;;;32.62;33.32
80759;BME280;70150;45.582;10.178;2023-06-26T08:44:52;99892.03;;;32.72;33.27
80759;BME280;70150;45.582;10.178;2023-06-26T08:47:18;99892.56;;;32.59;32.99
80759;BME280;70150;45.582;10.178;2023-06-26T08:49:51;99898.84;;;32.54;33.74
80759;BME280;70150;45.582;10.178;2023-06-26T08:52:23;99898.59;;;32.58;34.18
80759;BME280;70150;45.582;10.178;2023-06-26T08:54:54;99895.31;;;32.70;34.67
80759;BME280;70150;45.582;10.178;2023-06-26T08:57:23;99890.00;;;32.61;32.21
80759;BME280;70150;45.582;10.178;2023-06-26T08:59:48;99880.84;;;32.33;33.75
80759;BME280;70150;45.582;10.178;2023-06-26T09:02:14;99888.75;;;32.73;33.95
80759;BME280;70150;45.582;10.178;2023-06-26T09:04:40;99891.28;;;32.60;31.99
80759;BME280;70150;45.582;10.178;2023-06-26T09:07:06;99881.66;;;32.61;32.83
80759;BME280;70150;45.582;10.178;2023-06-26T09:09:32;99879.19;;;32.74;34.21
80759;BME280;70150;45.582;10.178;2023-06-26T09:11:57;99891.84;;;32.97;35.12
80759;BME280;70150;45.582;10.178;2023-06-26T09:14:25;99880.19;;;32.82;32.74
80759;BME280;70150;45.582;10.178;2023-06-26T09:16:51;99882.69;;;32.75;34.41
80759;BME280;70150;45.582;10.178;2023-06-26T09:19:16;99878.47;;;32.90;33.19
80759;BME280;70150;45.582;10.178;2023-06-26T09:21:43;99874.88;;;32.62;33.38
80759;BME280;70150;45.582;10.178;2023-06-26T09:24:09;99870.47;;;32.28;33.84
80759;BME280;70150;45.582;10.178;2023-06-26T09:26:36;99875.88;;;32.70;34.43
80759;BME280;70150;45.582;10.178;2023-06-26T09:29:03;99871.13;;;32.93;35.02
80759;BME280;70150;45.582;10.178;2023-06-26T09:31:29;99869.88;;;33.05;32.86
80759;BME280;70150;45.582;10.178;2023-06-26T09:33:58;99869.63;;;32.86;33.01
80759;BME280;70150;45.582;10.178;2023-06-26T09:36:27;99869.34;;;32.90;33.70
80759;BME280;70150;45.582;10.178;2023-06-26T09:38:53;99864.28;;;32.83;33.19
80759;BME280;70150;45.582;10.178;2023-06-26T09:41:19;99864.50;;;32.63;33.73
80759;BME280;70150;45.582;10.178;2023-06-26T09:43:46;99857.47;;;32.95;32.43
80759;BME280;70150;45.582;10.178;2023-06-26T09:46:15;99849.16;;;33.06;33.14
80759;BME280;70150;45.582;10.178;2023-06-26T09:48:41;99856.97;;;33.08;33.15
80759;BME280;70150;45.582;10.178;2023-06-26T09:51:07;99840.28;;;33.08;32.15
80759;BME280;70150;45.582;10.178;2023-06-26T09:53:35;99849.63;;;32.71;34.14
80759;BME280;70150;45.582;10.178;2023-06-26T09:56:05;99843.53;;;32.84;34.48
80759;BME280;70150;45.582;10.178;2023-06-26T09:58:32;99836.72;;;32.79;33.47
80759;BME280;70150;45.582;10.178;2023-06-26T10:00:58;99843.00;;;32.41;32.72
80759;BME280;70150;45.582;10.178;2023-06-26T10:03:23;99836.72;;;32.52;33.70
80759;BME280;70150;45.582;10.178;2023-06-26T10:05:49;99839.25;;;32.77;33.99
80759;BME280;70150;45.582;10.178;2023-06-26T10:08:16;99842.03;;;32.72;34.49
80759;BME280;70150;45.582;10.178;2023-06-26T10:10:43;99837.88;;;32.23;33.38
80759;BME280;70150;45.582;10.178;2023-06-26T10:13:16;99832.13;;;32.38;33.64
80759;BME280;70150;45.582;10.178;2023-06-26T10:15:46;99833.94;;;32.63;33.28
80759;BME280;70150;45.582;10.178;2023-06-26T10:18:13;99824.09;;;32.78;32.82
80759;BME280;70150;45.582;10.178;2023-06-26T10:20:42;99826.59;;;32.54;32.72
80759;BME280;70150;45.582;10.178;2023-06-26T10:23:09;99826.06;;;32.45;33.20
80759;BME280;70150;45.582;10.178;2023-06-26T10:25:37;99827.25;;;32.16;33.46
80759;BME280;70150;45.582;10.178;2023-06-26T10:28:07;99831.63;;;32.39;34.58
80759;BME280;70150;45.582;10.178;2023-06-26T10:30:35;99828.13;;;32.44;33.55
80759;BME280;70150;45.582;10.178;2023-06-26T10:33:03;99823.59;;;32.63;33.71
80759;BME280;70150;45.582;10.178;2023-06-26T10:35:30;99829.63;;;32.84;34.34
80759;BME280;70150;45.582;10.178;2023-06-26T10:38:01;99822.84;;;32.85;34.27
80759;BME280;70150;45.582;10.178;2023-06-26T10:40:40;99820.84;;;32.91;32.82
80759;BME280;70150;45.582;10.178;2023-06-26T10:43:07;99815.75;;;32.84;33.09
80759;BME280;70150;45.582;10.178;2023-06-26T10:45:34;99815.75;;;32.67;33.01
80759;BME280;70150;45.582;10.178;2023-06-26T10:48:00;99819.81;;;32.77;34.14
80759;BME280;70150;45.582;10.178;2023-06-26T10:50:29;99820.81;;;32.80;33.10
80759;BME280;70150;45.582;10.178;2023-06-26T10:55:27;99812.72;;;32.65;32.29
80759;BME280;70150;45.582;10.178;2023-06-26T10:57:55;99810.94;;;32.57;33.70
80759;BME280;70150;45.582;10.178;2023-06-26T11:00:20;99813.47;;;32.49;32.84
80759;BME280;70150;45.582;10.178;2023-06-26T11:02:49;99805.88;;;32.50;33.22
80759;BME280;70150;45.582;10.178;2023-06-26T11:10:19;99808.44;;;32.70;34.31
80759;BME280;70150;45.582;10.178;2023-06-26T11:12:45;99803.63;;;32.87;32.63
80759;BME280;70150;45.582;10.178;2023-06-26T11:15:14;99805.69;;;32.86;33.70
80759;BME280;70150;45.582;10.178;2023-06-26T11:17:41;99807.41;;;32.67;32.75
80759;BME280;70150;45.582;10.178;2023-06-26T11:20:09;99806.44;;;32.92;32.75
80759;BME280;70150;45.582;10.178;2023-06-26T11:22:36;99807.41;;;32.78;32.23
80759;BME280;70150;45.582;10.178;2023-06-26T11:25:05;99800.84;;;32.59;32.07
80759;BME280;70150;45.582;10.178;2023-06-26T11:30:01;99807.13;;;32.38;33.63
80759;BME280;70150;45.582;10.178;2023-06-26T11:32:27;99810.72;;;32.55;33.14
80759;BME280;70150;45.582;10.178;2023-06-26T11:34:54;99813.47;;;32.82;33.19
80759;BME280;70150;45.582;10.178;2023-06-26T11:37:21;99807.16;;;32.76;32.86
80759;BME280;70150;45.582;10.178;2023-06-26T11:39:46;99811.25;;;32.86;32.17
80759;BME280;70150;45.582;10.178;2023-06-26T11:42:12;99794.53;;;32.92;33.26
80759;BME280;70150;45.582;10.178;2023-06-26T11:44:41;99801.09;;;33.05;31.91
80759;BME280;70150;45.582;10.178;2023-06-26T11:47:12;99802.13;;;32.91;32.05
80759;BME280;70150;45.582;10.178;2023-06-26T11:49:38;99800.34;;;32.77;32.10
80759;BME280;70150;45.582;10.178;2023-06-26T11:52:03;99797.84;;;32.90;31.74
80759;BME280;70150;45.582;10.178;2023-06-26T11:54:29;99796.06;;;32.82;31.54
80759;BME280;70150;45.582;10.178;2023-06-26T11:56:57;99796.81;;;32.71;33.14
80759;BME280;70150;45.582;10.178;2023-06-26T11:59:24;99788.22;;;32.58;32.41
80759;BME280;70150;45.582;10.178;2023-06-26T12:01:53;99788.16;;;32.25;33.69
80759;BME280;70150;45.582;10.178;2023-06-26T12:04:18;99794.25;;;32.40;32.51
80759;BME280;70150;45.582;10.178;2023-06-26T12:06:47;99794.78;;;32.61;32.70
80759;BME280;70150;45.582;10.178;2023-06-26T12:09:14;99789.00;;;32.92;32.59
80759;BME280;70150;45.582;10.178;2023-06-26T12:11:42;99783.69;;;32.94;31.68
80759;BME280;70150;45.582;10.178;2023-06-26T12:14:09;99787.44;;;32.85;32.49
80759;BME280;70150;45.582;10.178;2023-06-26T12:16:35;99782.16;;;32.65;32.82
80759;BME280;70150;45.582;10.178;2023-06-26T12:19:04;99792.00;;;32.61;33.80
80759;BME280;70150;45.582;10.178;2023-06-26T12:24:01;99779.63;;;33.00;32.62
80759;BME280;70150;45.582;10.178;2023-06-26T12:26:28;99778.63;;;33.03;31.56
80759;BME280;70150;45.582;10.178;2023-06-26T12:31:26;99772.06;;;32.95;32.85
80759;BME280;70150;45.582;10.178;2023-06-26T12:33:52;99776.84;;;32.67;33.54
80759;BME280;70150;45.582;10.178;2023-06-26T12:36:18;99773.81;;;32.54;31.95
80759;BME280;70150;45.582;10.178;2023-06-26T12:38:46;99767.47;;;32.32;33.63
80759;BME280;70150;45.582;10.178;2023-06-26T12:41:13;99774.06;;;32.56;34.23
80759;BME280;70150;45.582;10.178;2023-06-26T12:43:42;99773.31;;;32.72;32.96
80759;BME280;70150;45.582;10.178;2023-06-26T12:46:08;99773.56;;;32.52;32.55
80759;BME280;70150;45.582;10.178;2023-06-26T12:48:38;99776.59;;;32.65;33.65
80759;BME280;70150;45.582;10.178;2023-06-26T12:51:08;99770.53;;;32.50;33.37
80759;BME280;70150;45.582;10.178;2023-06-26T12:53:34;99759.66;;;32.52;33.30
80759;BME280;70150;45.582;10.178;2023-06-26T12:55:59;99762.97;;;32.45;34.67
80759;BME280;70150;45.582;10.178;2023-06-26T12:58:25;99759.38;;;32.28;34.54
80759;BME280;70150;45.582;10.178;2023-06-26T13:00:50;99762.69;;;32.43;34.08
80759;BME280;70150;45.582;10.178;2023-06-26T13:03:16;99759.41;;;32.72;34.77
80759;BME280;70150;45.582;10.178;2023-06-26T13:05:42;99755.63;;;32.92;32.83
80759;BME280;70150;45.582;10.178;2023-06-26T13:08:07;99740.94;;;32.86;33.02
80759;BME280;70150;45.582;10.178;2023-06-26T13:10:35;99746.25;;;33.06;32.95